Terminal Aerodrome Forecast
Issued by NWS

Home | Current Version | Previous Version | Text Only | Print | Product List | Glossary On
Versions: 1 2 3 4 5 6 7 8 9 10 11 12 13 14 15 16 17 18 19 20 21 22 23
360
FTUS41 KGYX 190846 AAA
TAFHIE
TAF AMD
KHIE 190846Z 1909/2006 00000KT 6SM BR OVC015
      TEMPO 1909/1912 3SM BR OVC008
     FM191300 VRB03KT P6SM OVC025
     FM191700 26005KT P6SM BKN050=

USA.gov is the U.S. government's official web portal to all federal, state and local government web resources and services.